createdAt,value
2018-03-15T00:04:19.815Z,71.30
2018-03-15T00:06:48.521Z,70.98
2018-03-15T00:09:17.056Z,71.05
2018-03-15T00:11:47.152Z,70.99
2018-03-15T00:14:15.562Z,71.37
2018-03-15T00:16:43.916Z,71.60
2018-03-15T00:19:12.815Z,71.93
2018-03-15T00:21:41.162Z,71.44
2018-03-15T00:24:11.884Z,70.55
2018-03-15T00:26:41.175Z,71.19
2018-03-15T00:29:09.529Z,70.55
2018-03-15T00:31:39.231Z,71.47
2018-03-15T00:34:08.781Z,71.85
2018-03-15T00:36:38.017Z,71.71
2018-03-15T00:39:07.086Z,71.47
2018-03-15T00:41:36.466Z,71.94
2018-03-15T00:44:06.416Z,71.37
2018-03-15T00:46:36.461Z,71.90
2018-03-15T00:49:05.423Z,72.06
2018-03-15T00:51:34.706Z,72.51
2018-03-15T00:54:03.078Z,72.45
2018-03-15T00:56:33.551Z,72.53
2018-03-15T00:59:01.875Z,72.60
2018-03-15T01:01:31.161Z,72.34
2018-03-15T01:03:59.880Z,72.60
2018-03-15T01:06:28.230Z,72.29
2018-03-15T01:08:58.327Z,72.34
2018-03-15T01:11:27.983Z,71.89
2018-03-15T01:13:56.344Z,71.80
2018-03-15T01:16:25.900Z,71.83
2018-03-15T01:18:54.758Z,71.29
2018-03-15T01:21:23.599Z,71.53
2018-03-15T01:23:53.579Z,71.45
2018-03-15T01:26:21.984Z,71.35
2018-03-15T01:28:51.346Z,71.51
2018-03-15T01:31:20.901Z,71.28
2018-03-15T01:33:50.712Z,70.88
2018-03-15T01:36:20.296Z,70.85
2018-03-15T01:38:49.191Z,70.66
2018-03-15T01:41:17.582Z,71.06
2018-03-15T01:43:46.442Z,71.43
2018-03-15T01:46:15.640Z,71.52
2018-03-15T01:48:45.156Z,71.42
2018-03-15T01:51:13.964Z,71.34
2018-03-15T01:53:42.310Z,71.18
2018-03-15T01:56:12.139Z,70.28
2018-03-15T01:58:40.472Z,70.36
2018-03-15T02:01:08.824Z,69.96
2018-03-15T02:03:38.084Z,69.46
2018-03-15T02:06:07.284Z,69.13
2018-03-15T02:08:36.572Z,69.38
2018-03-15T02:11:05.295Z,69.94
2018-03-15T02:13:34.567Z,70.19
2018-03-15T02:16:03.652Z,69.82
2018-03-15T02:18:32.842Z,69.82
2018-03-15T02:21:02.953Z,69.97
2018-03-15T02:23:31.406Z,69.93
2018-03-15T02:26:01.253Z,70.13
2018-03-15T02:28:29.845Z,69.87
2018-03-15T02:30:59.164Z,70.27
2018-03-15T02:33:27.492Z,70.55
2018-03-15T02:35:55.861Z,70.99
2018-03-15T02:38:24.242Z,71.42
2018-03-15T02:40:52.616Z,71.72
2018-03-15T02:43:21.067Z,72.35
2018-03-15T02:45:51.003Z,72.78
2018-03-15T02:48:19.598Z,72.52
2018-03-15T02:50:48.074Z,72.73
2018-03-15T02:53:17.479Z,72.50
2018-03-15T02:55:46.596Z,72.67
2018-03-15T02:58:15.544Z,72.36
2018-03-15T03:00:48.407Z,72.31
2018-03-15T03:03:17.358Z,73.07
2018-03-15T03:05:45.787Z,72.83
2018-03-15T03:08:15.455Z,72.69
2018-03-15T03:10:45.110Z,72.90
2018-03-15T03:13:13.687Z,72.99
2018-03-15T03:15:42.280Z,72.91
2018-03-15T03:18:10.616Z,73.21
2018-03-15T03:20:40.831Z,73.20
2018-03-15T03:23:10.108Z,73.29
2018-03-15T03:25:38.874Z,72.84
2018-03-15T03:28:08.871Z,72.80
2018-03-15T03:30:38.322Z,72.59
2018-03-15T03:33:07.929Z,72.99
2018-03-15T03:35:37.824Z,72.76
2018-03-15T03:38:06.557Z,72.83
2018-03-15T03:40:36.819Z,72.49
2018-03-15T03:43:05.482Z,72.54
2018-03-15T03:45:34.757Z,72.73
2018-03-15T03:48:03.589Z,73.17
2018-03-15T03:50:32.932Z,73.50
2018-03-15T03:53:01.264Z,73.39
2018-03-15T03:55:31.646Z,73.70
2018-03-15T03:57:59.975Z,73.66
2018-03-15T04:00:28.331Z,73.43
2018-03-15T04:02:57.667Z,73.73
2018-03-15T04:05:26.551Z,73.74
2018-03-15T04:07:54.939Z,73.71
2018-03-15T04:10:23.282Z,73.48
2018-03-15T04:12:54.900Z,73.08
2018-03-15T04:15:23.326Z,73.11
2018-03-15T04:17:52.309Z,72.79
2018-03-15T04:20:22.406Z,72.03
2018-03-15T04:22:51.491Z,72.32
2018-03-15T04:25:20.210Z,71.39
2018-03-15T04:27:49.024Z,72.27
2018-03-15T04:30:18.136Z,72.28
2018-03-15T04:32:46.506Z,72.14
2018-03-15T04:35:15.148Z,72.19
2018-03-15T04:37:44.321Z,72.04
2018-03-15T04:40:13.163Z,71.94
2018-03-15T04:42:42.598Z,71.84
2018-03-15T04:45:11.711Z,71.60
2018-03-15T04:47:40.819Z,71.48
2018-03-15T04:50:09.214Z,71.30
2018-03-15T04:52:38.871Z,71.41
2018-03-15T04:55:08.341Z,71.88
2018-03-15T04:57:38.648Z,72.28
2018-03-15T05:00:06.991Z,72.78
2018-03-15T05:02:36.206Z,72.93
2018-03-15T05:05:04.547Z,73.06
2018-03-15T05:07:32.904Z,73.38
2018-03-15T05:10:01.238Z,73.25
2018-03-15T05:12:30.393Z,73.34
2018-03-15T05:15:00.299Z,73.43
2018-03-15T05:17:29.747Z,73.42
2018-03-15T05:19:59.987Z,73.55
2018-03-15T05:22:28.700Z,73.63
2018-03-15T05:24:57.132Z,73.58
2018-03-15T05:27:25.554Z,73.53
2018-03-15T05:29:54.803Z,73.78
2018-03-15T05:32:23.803Z,73.63
2018-03-15T05:34:56.293Z,74.12
2018-03-15T05:37:24.726Z,74.04
2018-03-15T05:39:54.547Z,73.71
2018-03-15T05:42:23.086Z,73.44
2018-03-15T05:44:52.366Z,73.55
2018-03-15T05:47:21.763Z,73.70
2018-03-15T05:49:50.219Z,73.00
2018-03-15T05:52:18.622Z,72.94
2018-03-15T05:54:47.902Z,72.99
2018-03-15T05:57:16.352Z,73.53
2018-03-15T05:59:45.816Z,73.44
2018-03-15T06:02:14.455Z,73.09
2018-03-15T06:04:42.783Z,73.32
2018-03-15T06:07:17.162Z,74.08
2018-03-15T06:09:45.495Z,73.77
2018-03-15T06:12:16.687Z,73.69
2018-03-15T06:14:46.186Z,73.56
2018-03-15T06:17:16.366Z,73.70
2018-03-15T06:19:44.707Z,73.76
2018-03-15T06:22:13.114Z,73.50
2018-03-15T06:24:41.450Z,73.42
2018-03-15T06:27:09.810Z,73.42
2018-03-15T06:29:39.138Z,73.04
2018-03-15T06:32:07.503Z,72.96
2018-03-15T06:34:35.837Z,72.82
2018-03-15T06:37:04.257Z,73.02
2018-03-15T06:39:33.004Z,73.42
2018-03-15T06:42:01.546Z,72.91
2018-03-15T06:44:31.761Z,72.94
2018-03-15T06:47:02.086Z,73.20
2018-03-15T06:49:30.467Z,72.92
2018-03-15T06:52:01.650Z,72.80
2018-03-15T06:54:30.290Z,72.78
2018-03-15T06:56:58.635Z,72.45
2018-03-15T06:59:26.957Z,71.89
2018-03-15T07:01:55.845Z,71.99
2018-03-15T07:04:25.466Z,71.88
2018-03-15T07:06:53.851Z,72.30
2018-03-15T07:09:22.181Z,73.02
2018-03-15T07:11:51.458Z,73.00
2018-03-15T07:14:20.195Z,72.82
2018-03-15T07:16:49.841Z,71.78
2018-03-15T07:19:18.715Z,70.55
2018-03-15T07:21:48.495Z,70.89
2018-03-15T07:24:17.646Z,70.93
2018-03-15T07:26:46.762Z,69.90
2018-03-15T07:29:15.182Z,69.82
2018-03-15T07:31:43.532Z,69.39
2018-03-15T07:34:13.892Z,68.55
2018-03-15T07:36:43.724Z,68.65
2018-03-15T07:39:12.186Z,69.22
2018-03-15T07:41:41.546Z,68.21
2018-03-15T07:44:09.892Z,68.05
2018-03-15T07:46:38.276Z,68.23
2018-03-15T07:49:07.455Z,67.73
2018-03-15T07:51:37.005Z,67.45
2018-03-15T07:54:06.251Z,67.46
2018-03-15T07:56:35.945Z,67.41
2018-03-15T07:59:05.050Z,66.67
2018-03-15T08:01:33.671Z,65.78
2018-03-15T08:04:02.451Z,65.69
2018-03-15T08:06:30.815Z,65.56
2018-03-15T08:08:59.240Z,65.88
2018-03-15T08:11:28.575Z,64.92
2018-03-15T08:13:58.190Z,64.64
2018-03-15T08:16:27.377Z,63.83
2018-03-15T08:18:55.718Z,63.80
2018-03-15T08:21:24.291Z,62.69
2018-03-15T08:23:54.270Z,61.55
2018-03-15T08:26:23.794Z,60.97
2018-03-15T08:28:53.030Z,60.26
2018-03-15T08:31:21.400Z,60.52
2018-03-15T08:33:49.766Z,60.34
2018-03-15T08:36:19.395Z,59.79
2018-03-15T08:38:47.775Z,58.67
2018-03-15T08:41:16.136Z,59.87
2018-03-15T08:43:44.758Z,58.85
2018-03-15T08:46:15.030Z,58.55
2018-03-15T08:48:44.123Z,59.25
2018-03-15T08:51:12.801Z,58.95
2018-03-15T08:53:41.123Z,57.97
2018-03-15T08:56:11.191Z,58.96
2018-03-15T08:58:39.560Z,57.12
2018-03-15T09:01:08.886Z,56.81
2018-03-15T09:03:38.147Z,56.73
2018-03-15T09:06:07.317Z,56.94
2018-03-15T09:08:39.690Z,56.16
2018-03-15T09:11:10.932Z,56.54
2018-03-15T09:13:40.356Z,56.80
2018-03-15T09:16:09.827Z,56.21
2018-03-15T09:18:39.015Z,55.94
2018-03-15T09:21:07.377Z,55.79
2018-03-15T09:23:37.934Z,55.04
2018-03-15T09:26:06.262Z,54.38
2018-03-15T09:28:35.813Z,53.78
2018-03-15T09:31:04.169Z,53.84
2018-03-15T09:33:33.366Z,52.84
2018-03-15T09:36:02.429Z,52.60
2018-03-15T09:38:30.791Z,51.93
2018-03-15T09:40:59.133Z,51.99
2018-03-15T09:43:27.527Z,51.17
2018-03-15T09:45:57.261Z,51.76
2018-03-15T09:48:25.614Z,51.48
2018-03-15T09:50:54.931Z,51.81
2018-03-15T09:53:23.343Z,50.94
2018-03-15T09:55:53.512Z,50.63
2018-03-15T09:58:23.159Z,51.41
2018-03-15T10:00:51.501Z,51.55
2018-03-15T10:03:19.876Z,51.46
2018-03-15T10:05:48.648Z,51.16
2018-03-15T10:08:17.383Z,51.10
2018-03-15T10:10:45.810Z,49.85
2018-03-15T10:13:14.894Z,49.36
2018-03-15T10:15:43.667Z,49.85
2018-03-15T10:18:12.913Z,49.98
2018-03-15T10:20:43.098Z,49.12
2018-03-15T10:23:12.183Z,49.25
2018-03-15T10:25:41.811Z,48.57
2018-03-15T10:28:10.220Z,48.35
2018-03-15T10:30:40.895Z,48.67
2018-03-15T10:33:17.102Z,47.65
2018-03-15T10:35:46.487Z,46.57
2018-03-15T10:38:14.894Z,47.06
2018-03-15T10:40:44.911Z,47.07
2018-03-15T10:43:13.881Z,46.83
2018-03-15T10:45:43.105Z,44.63
2018-03-15T10:48:11.474Z,44.24
2018-03-15T10:50:41.299Z,43.25
2018-03-15T10:53:11.166Z,43.66
2018-03-15T10:55:40.769Z,44.31
2018-03-15T10:58:09.400Z,43.73
2018-03-15T11:00:45.197Z,42.64
2018-03-15T11:03:17.385Z,43.80
2018-03-15T11:05:48.105Z,44.48
2018-03-15T11:08:23.113Z,43.62
2018-03-15T11:11:09.309Z,43.54
2018-03-15T11:13:37.688Z,42.60
2018-03-15T11:16:06.034Z,43.12
2018-03-15T11:18:35.569Z,42.95
2018-03-15T11:21:04.155Z,43.35
2018-03-15T11:23:32.586Z,41.99
2018-03-15T11:26:01.401Z,42.29
2018-03-15T11:28:30.224Z,42.08
2018-03-15T11:30:59.554Z,41.93
2018-03-15T11:33:27.959Z,41.71
2018-03-15T11:35:56.349Z,41.00
2018-03-15T11:38:25.641Z,40.77
2018-03-15T11:40:54.020Z,39.73
2018-03-15T11:43:28.689Z,39.52
2018-03-15T11:45:57.038Z,38.28
2018-03-15T11:48:26.191Z,38.44
2018-03-15T11:50:54.528Z,37.29
2018-03-15T11:53:23.742Z,35.81
2018-03-15T11:55:52.226Z,35.27
2018-03-15T11:58:21.161Z,36.45
2018-03-15T12:00:49.500Z,36.42
2018-03-15T12:03:18.803Z,37.01
2018-03-15T12:05:47.154Z,37.24
2018-03-15T12:08:15.539Z,37.17
2018-03-15T12:10:43.871Z,37.11
2018-03-15T12:13:12.237Z,36.44
2018-03-15T12:15:42.014Z,36.30
2018-03-15T12:18:10.932Z,36.21
2018-03-15T12:20:39.682Z,36.29
2018-03-15T12:23:10.601Z,36.08
2018-03-15T12:25:38.964Z,35.20
2018-03-15T12:28:07.359Z,35.97
2018-03-15T12:30:36.540Z,35.79
2018-03-15T12:33:06.307Z,35.58
2018-03-15T12:35:38.331Z,35.90
2018-03-15T12:38:08.702Z,34.99
2018-03-15T12:40:37.086Z,34.04
2018-03-15T12:43:06.429Z,35.21
2018-03-15T12:45:35.758Z,35.40
2018-03-15T12:48:05.438Z,35.88
2018-03-15T12:50:35.518Z,36.60
2018-03-15T12:53:03.857Z,36.66
2018-03-15T12:55:32.184Z,37.67
2018-03-15T12:58:03.470Z,38.04
2018-03-15T13:00:33.112Z,38.23
2018-03-15T13:03:03.312Z,37.85
2018-03-15T13:05:31.663Z,36.84
2018-03-15T13:08:00.113Z,36.82
2018-03-15T13:10:29.575Z,36.56
2018-03-15T13:12:58.747Z,37.02
2018-03-15T13:15:28.105Z,37.54
2018-03-15T13:17:57.421Z,36.28
2018-03-15T13:20:26.564Z,36.60
2018-03-15T13:22:56.329Z,37.07
2018-03-15T13:25:25.247Z,36.69
2018-03-15T13:27:53.592Z,36.73
2018-03-15T13:30:22.206Z,37.57
2018-03-15T13:32:51.542Z,37.30
2018-03-15T13:35:19.946Z,37.19
2018-03-15T13:37:49.183Z,36.76
2018-03-15T13:40:17.965Z,37.01
2018-03-15T13:42:49.350Z,37.85
2018-03-15T13:45:18.519Z,38.32
2018-03-15T13:47:49.668Z,38.21
2018-03-15T13:50:19.710Z,38.79
2018-03-15T13:52:48.195Z,38.73
2018-03-15T13:55:16.524Z,39.33
2018-03-15T13:57:44.938Z,39.28
2018-03-15T14:00:13.489Z,38.74
2018-03-15T14:02:42.330Z,38.87
2018-03-15T14:05:12.253Z,38.83
2018-03-15T14:07:40.589Z,39.23
2018-03-15T14:10:08.998Z,40.20
2018-03-15T14:12:37.350Z,39.98
2018-03-15T14:15:07.428Z,39.14
2018-03-15T14:17:35.816Z,39.52
2018-03-15T14:20:06.074Z,40.60
2018-03-15T14:22:36.783Z,40.22
2018-03-15T14:25:06.763Z,38.74
2018-03-15T14:27:36.321Z,40.05
2018-03-15T14:30:04.646Z,40.47
2018-03-15T14:32:33.944Z,40.79
2018-03-15T14:35:04.488Z,40.08
2018-03-15T14:37:32.874Z,41.08
2018-03-15T14:40:01.739Z,41.56
2018-03-15T14:42:30.495Z,41.13
2018-03-15T14:44:59.426Z,40.78
2018-03-15T14:47:27.759Z,40.32
2018-03-15T14:49:56.402Z,41.33
2018-03-15T14:52:26.733Z,40.93
2018-03-15T14:54:55.584Z,41.26
2018-03-15T14:57:24.354Z,41.63
2018-03-15T14:59:52.691Z,41.71
2018-03-15T15:02:24.012Z,40.79
2018-03-15T15:04:53.296Z,41.50
2018-03-15T15:07:21.639Z,41.00
2018-03-15T15:09:51.136Z,41.51
2018-03-15T15:12:20.517Z,41.67
2018-03-15T15:14:50.389Z,42.23
2018-03-15T15:17:18.980Z,41.80
2018-03-15T15:19:48.165Z,43.01
2018-03-15T15:22:16.493Z,42.63
2018-03-15T15:24:45.140Z,42.22
2018-03-15T15:27:17.178Z,42.74
2018-03-15T15:29:50.785Z,43.66
2018-03-15T15:32:20.040Z,43.72
2018-03-15T15:34:48.731Z,44.08
2018-03-15T15:37:17.686Z,44.36
2018-03-15T15:39:46.038Z,44.32
2018-03-15T15:42:14.642Z,44.10
2018-03-15T15:44:43.984Z,44.50
2018-03-15T15:47:12.355Z,43.69
2018-03-15T15:49:41.852Z,44.38
2018-03-15T15:52:10.707Z,44.82
2018-03-15T15:54:39.079Z,44.63
2018-03-15T15:57:08.563Z,44.70
2018-03-15T15:59:36.928Z,45.50
2018-03-15T16:02:05.266Z,45.04
2018-03-15T16:04:33.686Z,45.85
2018-03-15T16:07:03.056Z,45.48
2018-03-15T16:09:32.416Z,45.03
2018-03-15T16:12:01.824Z,45.76
2018-03-15T16:14:30.472Z,45.73
2018-03-15T16:16:59.752Z,46.70
2018-03-15T16:19:28.114Z,46.43
2018-03-15T16:21:57.089Z,46.42
2018-03-15T16:24:25.440Z,46.58
2018-03-15T16:26:53.772Z,46.53
2018-03-15T16:29:22.823Z,46.62
2018-03-15T16:31:51.434Z,47.18
2018-03-15T16:34:20.631Z,47.64
2018-03-15T16:36:50.328Z,47.66
2018-03-15T16:39:19.842Z,47.06
2018-03-15T16:41:48.180Z,46.88
2018-03-15T16:44:17.260Z,47.34
2018-03-15T16:46:45.599Z,47.44
2018-03-15T16:49:13.995Z,47.92
2018-03-15T16:51:43.482Z,48.22
2018-03-15T16:54:12.891Z,48.41
2018-03-15T16:56:42.321Z,48.96
2018-03-15T16:59:10.733Z,48.03
2018-03-15T17:01:40.033Z,48.27
2018-03-15T17:04:08.595Z,48.47
2018-03-15T17:06:38.681Z,48.22
2018-03-15T17:09:10.063Z,48.62
2018-03-15T17:11:39.572Z,49.00
2018-03-15T17:14:08.588Z,49.09
2018-03-15T17:16:37.224Z,48.88
2018-03-15T17:19:08.611Z,49.43
2018-03-15T17:21:36.991Z,49.23
2018-03-15T17:24:07.404Z,49.12
2018-03-15T17:26:35.869Z,49.46
2018-03-15T17:29:06.205Z,50.03
2018-03-15T17:31:34.619Z,50.25
2018-03-15T17:34:03.775Z,50.15
2018-03-15T17:36:33.674Z,50.57
2018-03-15T17:39:02.404Z,50.24
2018-03-15T17:41:30.770Z,50.69
2018-03-15T17:44:00.019Z,50.57
2018-03-15T17:46:29.389Z,50.85
2018-03-15T17:48:58.740Z,51.11
2018-03-15T17:51:27.761Z,51.73
2018-03-15T17:53:56.129Z,51.63
2018-03-15T17:56:25.421Z,51.56
2018-03-15T17:58:55.541Z,51.75
2018-03-15T18:01:24.839Z,51.90
2018-03-15T18:03:53.189Z,52.61
2018-03-15T18:06:22.031Z,52.51
2018-03-15T18:08:51.435Z,52.39
2018-03-15T18:11:20.057Z,52.40
2018-03-15T18:13:50.195Z,52.13
2018-03-15T18:16:18.806Z,52.18
2018-03-15T18:18:49.191Z,52.65
2018-03-15T18:21:17.542Z,52.31
2018-03-15T18:23:47.394Z,51.84
2018-03-15T18:26:23.244Z,51.91
2018-03-15T18:28:53.688Z,51.84
2018-03-15T18:31:24.008Z,51.67
2018-03-15T18:33:53.288Z,51.79
2018-03-15T18:36:22.734Z,51.81
2018-03-15T18:38:51.092Z,51.62
2018-03-15T18:41:19.532Z,51.70
2018-03-15T18:43:47.899Z,52.20
2018-03-15T18:46:19.958Z,52.56
2018-03-15T18:48:48.919Z,52.82
2018-03-15T18:51:20.868Z,53.32
2018-03-15T18:53:49.813Z,53.24
2018-03-15T18:56:19.036Z,53.49
2018-03-15T18:58:47.435Z,53.77
2018-03-15T19:01:15.765Z,54.14
2018-03-15T19:03:45.537Z,54.31
2018-03-15T19:06:14.602Z,54.95
2018-03-15T19:08:42.955Z,55.40
2018-03-15T19:11:15.072Z,54.76
2018-03-15T19:13:44.248Z,55.44
2018-03-15T19:16:14.127Z,55.60
2018-03-15T19:18:42.996Z,55.92
2018-03-15T19:21:12.273Z,55.62
2018-03-15T19:23:42.884Z,54.95
2018-03-15T19:26:11.305Z,54.99
2018-03-15T19:28:40.475Z,55.08
2018-03-15T19:31:08.905Z,55.41
2018-03-15T19:33:38.597Z,55.42
2018-03-15T19:36:06.980Z,55.38
2018-03-15T19:38:35.452Z,55.90
2018-03-15T19:41:04.563Z,55.60
2018-03-15T19:43:32.989Z,55.93
2018-03-15T19:46:01.698Z,55.71
2018-03-15T19:48:30.037Z,55.00
2018-03-15T19:50:58.439Z,57.21
2018-03-15T19:53:27.706Z,56.84
2018-03-15T19:56:02.816Z,57.40
2018-03-15T19:58:32.061Z,56.84
2018-03-15T20:01:00.664Z,56.55
2018-03-15T20:03:29.011Z,56.54
2018-03-15T20:05:58.876Z,56.26
2018-03-15T20:08:27.477Z,56.06
2018-03-15T20:10:56.791Z,55.42
2018-03-15T20:13:25.424Z,55.18
2018-03-15T20:15:56.311Z,55.55
2018-03-15T20:18:26.149Z,56.38
2018-03-15T20:20:56.078Z,58.13
2018-03-15T20:23:30.942Z,58.60
2018-03-15T20:26:01.320Z,59.39
2018-03-15T20:28:35.284Z,62.10
2018-03-15T20:31:04.597Z,64.07
2018-03-15T20:33:44.344Z,63.15
2018-03-15T20:36:14.042Z,63.30
2018-03-15T20:38:44.687Z,63.29
2018-03-15T20:41:20.408Z,64.10
2018-03-15T20:43:58.433Z,64.90
2018-03-15T20:46:33.779Z,66.27
2018-03-15T20:49:08.511Z,68.23
2018-03-15T20:51:37.738Z,69.52
2018-03-15T20:54:06.147Z,69.37
2018-03-15T20:56:34.866Z,69.26
2018-03-15T20:59:04.774Z,68.53
2018-03-15T21:01:34.286Z,68.35
2018-03-15T21:04:03.416Z,70.33
2018-03-15T21:06:32.464Z,70.22
2018-03-15T21:09:01.745Z,70.38
2018-03-15T21:11:30.922Z,70.57
2018-03-15T21:14:00.099Z,71.69
2018-03-15T21:16:28.463Z,71.22
2018-03-15T21:18:57.179Z,72.54
2018-03-15T21:21:26.466Z,72.83
2018-03-15T21:23:56.448Z,71.67
2018-03-15T21:26:26.446Z,73.95
2018-03-15T21:28:55.592Z,73.07
2018-03-15T21:31:24.023Z,73.20
2018-03-15T21:33:52.379Z,72.39
2018-03-15T21:36:21.738Z,72.71
2018-03-15T21:38:51.031Z,73.36
2018-03-15T21:41:19.384Z,73.85
2018-03-15T21:43:48.429Z,74.59
2018-03-15T21:46:17.527Z,75.04
2018-03-15T21:48:45.856Z,75.06
2018-03-15T21:51:14.936Z,76.95
2018-03-15T21:53:45.611Z,77.65
2018-03-15T21:56:14.251Z,77.49
2018-03-15T21:58:42.622Z,77.43
2018-03-15T22:01:13.064Z,77.81
2018-03-15T22:03:41.627Z,77.96
2018-03-15T22:06:12.274Z,76.95
2018-03-15T22:08:42.985Z,77.02
2018-03-15T22:11:12.218Z,77.15
2018-03-15T22:13:40.912Z,77.19
2018-03-15T22:16:10.607Z,77.04
2018-03-15T22:18:39.977Z,75.94
2018-03-15T22:21:09.247Z,75.90
2018-03-15T22:23:38.112Z,75.95
2018-03-15T22:26:08.085Z,76.33
2018-03-15T22:28:36.414Z,77.44
2018-03-15T22:31:04.793Z,77.77
2018-03-15T22:33:33.153Z,79.01
2018-03-15T22:36:01.567Z,79.13
2018-03-15T22:38:30.747Z,79.92
2018-03-15T22:41:00.326Z,79.78
2018-03-15T22:43:29.496Z,79.59
2018-03-15T22:45:58.152Z,79.38
2018-03-15T22:48:28.046Z,79.25
2018-03-15T22:50:56.518Z,78.88
2018-03-15T22:53:25.527Z,78.95
2018-03-15T22:55:54.903Z,79.33
2018-03-15T22:58:26.211Z,79.04
2018-03-15T23:00:55.132Z,79.72
2018-03-15T23:03:23.922Z,80.04
2018-03-15T23:05:54.467Z,80.15
2018-03-15T23:08:22.802Z,80.04
2018-03-15T23:10:51.871Z,80.22
2018-03-15T23:13:21.151Z,79.77
2018-03-15T23:15:53.181Z,79.80
2018-03-15T23:18:22.545Z,79.52
2018-03-15T23:20:50.895Z,79.12
2018-03-15T23:23:20.450Z,79.00
2018-03-15T23:25:49.648Z,79.30
2018-03-15T23:28:18.020Z,79.19
2018-03-15T23:30:47.010Z,79.45
2018-03-15T23:33:15.339Z,80.57
2018-03-15T23:35:44.834Z,80.70
2018-03-15T23:38:13.578Z,80.14
2018-03-15T23:40:42.681Z,80.80
2018-03-15T23:43:11.051Z,80.77
2018-03-15T23:45:40.871Z,80.35
2018-03-15T23:48:09.964Z,80.67
2018-03-15T23:50:38.803Z,80.45
2018-03-15T23:53:07.194Z,80.34
2018-03-15T23:55:36.235Z,80.21
